createdAt,value
2022-10-25T00:01:36.324Z,100801.25
2022-10-25T00:04:03.051Z,100796.78
2022-10-25T00:06:29.673Z,100797.94
2022-10-25T00:08:56.315Z,100796.25
2022-10-25T00:11:24.135Z,100807.50
2022-10-25T00:13:51.889Z,100806.66
2022-10-25T00:16:20.837Z,100810.31
2022-10-25T00:18:47.786Z,100814.28
2022-10-25T00:21:14.501Z,100818.72
2022-10-25T00:23:41.269Z,100805.84
2022-10-25T00:26:09.066Z,100809.47
2022-10-25T00:28:35.800Z,100804.19
2022-10-25T00:31:03.601Z,100808.66
2022-10-25T00:33:31.642Z,100819.06
2022-10-25T00:36:07.572Z,100820.22
2022-10-25T00:38:34.464Z,100816.88
2022-10-25T00:41:01.086Z,100824.47
2022-10-25T00:43:31.648Z,100824.78
2022-10-25T00:45:58.591Z,100816.66
2022-10-25T00:48:25.355Z,100819.19
2022-10-25T00:50:53.818Z,100821.44
2022-10-25T00:53:22.677Z,100827.06
2022-10-25T00:55:52.950Z,100827.06
2022-10-25T00:58:22.624Z,100831.84
2022-10-25T01:00:49.330Z,100827.06
2022-10-25T01:03:17.026Z,100828.97
2022-10-25T01:05:44.085Z,100818.88
2022-10-25T01:08:11.375Z,100816.06
2022-10-25T01:10:38.575Z,100816.88
2022-10-25T01:13:05.245Z,100820.03
2022-10-25T01:15:40.376Z,100815.56
2022-10-25T01:18:27.183Z,100826.78
2022-10-25T01:20:53.751Z,100819.00
2022-10-25T01:23:20.376Z,100822.31
2022-10-25T01:25:58.964Z,100817.81
2022-10-25T01:28:47.827Z,100819.81
2022-10-25T01:31:17.516Z,100827.94
2022-10-25T01:33:47.081Z,100829.91
2022-10-25T01:36:16.636Z,100830.22
2022-10-25T01:38:49.066Z,100826.25
2022-10-25T01:41:15.613Z,100832.72
2022-10-25T01:44:00.693Z,100832.72
2022-10-25T01:46:27.245Z,100833.03
2022-10-25T01:48:58.957Z,100835.00
2022-10-25T01:51:26.443Z,100835.00
2022-10-25T01:53:53.011Z,100841.47
2022-10-25T01:56:30.377Z,100845.06
2022-10-25T01:59:09.027Z,100843.44
2022-10-25T02:01:54.476Z,100843.44
2022-10-25T02:04:41.291Z,100845.41
2022-10-25T02:07:10.739Z,100845.41
2022-10-25T02:09:44.990Z,100837.00
2022-10-25T02:12:15.398Z,100841.78
2022-10-25T02:14:53.440Z,100832.50
2022-10-25T02:17:23.331Z,100837.81
2022-10-25T02:19:51.632Z,100846.25
2022-10-25T02:22:19.730Z,100848.72
2022-10-25T02:24:47.556Z,100839.78
2022-10-25T02:27:14.589Z,100841.47
2022-10-25T02:29:41.843Z,100841.47
2022-10-25T02:32:08.749Z,100842.28
2022-10-25T02:34:35.648Z,100840.63
2022-10-25T02:37:02.387Z,100833.34
2022-10-25T02:39:31.432Z,100836.66
2022-10-25T02:41:59.046Z,100839.78
2022-10-25T02:44:25.645Z,100838.66
2022-10-25T02:46:52.233Z,100840.63
2022-10-25T02:49:18.796Z,100840.63
2022-10-25T02:51:45.585Z,100844.56
2022-10-25T02:54:12.200Z,100842.59
2022-10-25T02:56:38.858Z,100837.81
2022-10-25T02:59:05.905Z,100848.22
2022-10-25T03:01:32.722Z,100843.75
2022-10-25T03:03:59.515Z,100839.78
2022-10-25T03:06:26.101Z,100832.22
2022-10-25T03:08:52.670Z,100837.00
2022-10-25T03:11:19.493Z,100837.81
2022-10-25T03:13:46.109Z,100842.59
2022-10-25T03:16:13.042Z,100841.78
2022-10-25T03:18:39.656Z,100838.66
2022-10-25T03:21:06.674Z,100843.44
2022-10-25T03:23:33.309Z,100839.78
2022-10-25T03:26:00.895Z,100848.22
2022-10-25T03:28:28.214Z,100840.94
2022-10-25T03:30:55.176Z,100846.25
2022-10-25T03:33:26.122Z,100846.25
2022-10-25T03:35:53.142Z,100863.09
2022-10-25T03:38:20.191Z,100851.03
2022-10-25T03:40:46.979Z,100853.84
2022-10-25T03:43:18.494Z,100858.31
2022-10-25T03:45:45.313Z,100860.28
2022-10-25T03:48:11.928Z,100864.22
2022-10-25T03:50:38.686Z,100862.25
2022-10-25T03:53:05.439Z,100865.38
2022-10-25T03:55:32.746Z,100861.44
2022-10-25T03:57:59.317Z,100854.97
2022-10-25T04:00:26.038Z,100857.78
2022-10-25T04:03:00.871Z,100857.78
2022-10-25T04:05:29.567Z,100862.56
2022-10-25T04:07:56.155Z,100857.25
2022-10-25T04:10:25.013Z,100860.06
2022-10-25T04:12:54.302Z,100868.47
2022-10-25T04:15:21.610Z,100868.47
2022-10-25T04:17:51.950Z,100866.84
2022-10-25T04:20:18.681Z,100871.28
2022-10-25T04:22:45.312Z,100871.28
2022-10-25T04:25:12.102Z,100868.47
2022-10-25T04:27:38.923Z,100878.91
2022-10-25T04:30:05.646Z,100874.44
2022-10-25T04:32:32.243Z,100880.03
2022-10-25T04:34:58.814Z,100873.59
2022-10-25T04:37:25.436Z,100878.91
2022-10-25T04:39:52.110Z,100879.22
2022-10-25T04:42:19.712Z,100881.19
2022-10-25T04:44:46.404Z,100883.16
2022-10-25T04:47:28.469Z,100881.19
2022-10-25T04:49:55.052Z,100884.28
2022-10-25T04:52:21.911Z,100883.16
2022-10-25T04:54:48.503Z,100892.41
2022-10-25T04:57:15.120Z,100887.09
2022-10-25T04:59:41.847Z,100885.97
2022-10-25T05:02:08.420Z,100894.38
2022-10-25T05:04:35.002Z,100887.09
2022-10-25T05:07:01.699Z,100889.91
2022-10-25T05:09:28.284Z,100903.13
2022-10-25T05:11:54.927Z,100897.00
2022-10-25T05:14:21.632Z,100905.41
2022-10-25T05:16:48.356Z,100900.94
2022-10-25T05:19:15.062Z,100901.78
2022-10-25T05:21:41.624Z,100901.78
2022-10-25T05:24:08.261Z,100900.09
2022-10-25T05:26:34.892Z,100914.13
2022-10-25T05:29:02.336Z,100909.38
2022-10-25T05:31:30.394Z,100908.22
2022-10-25T05:34:00.398Z,100921.13
2022-10-25T05:36:29.609Z,100916.34
2022-10-25T05:38:56.518Z,100921.34
2022-10-25T05:41:23.254Z,100924.66
2022-10-25T05:43:49.872Z,100928.00
2022-10-25T05:46:18.340Z,100929.03
2022-10-25T05:48:48.678Z,100917.69
2022-10-25T05:51:33.013Z,100930.81
2022-10-25T05:54:02.623Z,100925.09
2022-10-25T05:56:30.275Z,100937.34
2022-10-25T05:58:57.477Z,100936.72
2022-10-25T06:01:26.347Z,100934.94
2022-10-25T06:03:54.189Z,100938.31
2022-10-25T06:06:21.416Z,100942.16
2022-10-25T06:08:48.085Z,100937.91
2022-10-25T06:11:17.139Z,100938.41
2022-10-25T06:13:43.922Z,100941.44
2022-10-25T06:16:13.995Z,100943.94
2022-10-25T06:18:40.639Z,100951.72
2022-10-25T06:21:08.776Z,100948.63
2022-10-25T06:23:38.531Z,100957.56
2022-10-25T06:26:09.481Z,100958.38
2022-10-25T06:28:36.683Z,100956.63
2022-10-25T06:31:08.118Z,100951.81
2022-10-25T06:33:35.184Z,100949.84
2022-10-25T06:36:02.448Z,100957.13
2022-10-25T06:38:29.634Z,100951.22
2022-10-25T06:41:00.910Z,100956.50
2022-10-25T06:43:29.066Z,100959.31
2022-10-25T06:45:56.051Z,100955.34
2022-10-25T06:48:22.743Z,100958.69
2022-10-25T06:50:52.110Z,100963.19
2022-10-25T06:53:19.708Z,100953.06
2022-10-25T06:55:47.458Z,100960.03
2022-10-25T06:58:14.817Z,100958.06
2022-10-25T07:01:03.399Z,100962.53
2022-10-25T07:03:35.086Z,100975.47
2022-10-25T07:06:03.015Z,100975.47
2022-10-25T07:08:29.751Z,100975.13
2022-10-25T07:10:56.800Z,100972.31
2022-10-25T07:13:23.552Z,100979.59
2022-10-25T07:15:50.124Z,100981.59
2022-10-25T07:18:17.218Z,100986.06
2022-10-25T07:20:48.669Z,100986.06
2022-10-25T07:23:17.385Z,100985.22
2022-10-25T07:25:44.003Z,100990.34
2022-10-25T07:28:12.327Z,100987.00
2022-10-25T07:30:43.912Z,100994.31
2022-10-25T07:33:13.563Z,100996.28
2022-10-25T07:35:52.239Z,100995.75
2022-10-25T07:38:27.920Z,100999.41
2022-10-25T07:41:01.330Z,101005.00
2022-10-25T07:43:35.309Z,101003.88
2022-10-25T07:46:02.151Z,101018.25
2022-10-25T07:48:28.966Z,101009.50
2022-10-25T07:50:55.874Z,101007.84
2022-10-25T07:53:22.540Z,101010.34
2022-10-25T07:55:52.893Z,101003.47
2022-10-25T07:58:19.504Z,101013.56
2022-10-25T08:00:46.345Z,101008.66
2022-10-25T08:03:13.556Z,101017.53
2022-10-25T08:05:40.293Z,101012.31
2022-10-25T08:08:06.961Z,101008.47
2022-10-25T08:10:33.655Z,101011.47
2022-10-25T08:13:00.395Z,101015.84
2022-10-25T08:15:37.639Z,101012.41
2022-10-25T08:18:09.677Z,101011.75
2022-10-25T08:21:01.315Z,101023.53
2022-10-25T08:23:23.756Z,101025.41
2022-10-25T08:25:50.462Z,101027.94
2022-10-25T08:28:17.317Z,101022.31
2022-10-25T08:30:44.223Z,101026.75
2022-10-25T08:33:11.883Z,101021.97
2022-10-25T08:35:38.881Z,101026.44
2022-10-25T08:38:05.756Z,101022.50
2022-10-25T08:40:50.799Z,101025.94
2022-10-25T08:43:33.786Z,101022.31
2022-10-25T08:46:03.208Z,101026.25
2022-10-25T08:48:34.504Z,101025.41
2022-10-25T08:51:03.741Z,101020.09
2022-10-25T08:53:41.032Z,101023.25
2022-10-25T08:56:16.693Z,101020.44
2022-10-25T08:58:48.024Z,101028.34
2022-10-25T09:01:21.396Z,101023.00
2022-10-25T09:03:48.266Z,101025.31
2022-10-25T09:06:33.701Z,101034.91
2022-10-25T09:09:10.427Z,101034.69
2022-10-25T09:11:37.394Z,101035.00
2022-10-25T09:14:16.858Z,101035.00
2022-10-25T09:17:03.299Z,101052.50
2022-10-25T09:19:39.639Z,101042.69
2022-10-25T09:22:11.735Z,101044.19
2022-10-25T09:24:45.141Z,101044.81
2022-10-25T09:27:11.830Z,101046.78
2022-10-25T09:29:39.960Z,101053.00
2022-10-25T09:32:16.643Z,101060.31
2022-10-25T09:34:43.952Z,101049.91
2022-10-25T09:37:16.472Z,101047.81
2022-10-25T09:39:49.697Z,101051.78
2022-10-25T09:42:25.435Z,101065.41
2022-10-25T09:44:56.813Z,101060.28
2022-10-25T09:47:29.521Z,101058.22
2022-10-25T09:50:04.960Z,101046.53
2022-10-25T09:52:40.374Z,101047.28
2022-10-25T09:55:16.170Z,101053.53
2022-10-25T09:57:43.194Z,101045.09
2022-10-25T10:00:13.401Z,101042.88
2022-10-25T10:02:40.359Z,101040.75
2022-10-25T10:05:13.512Z,101032.66
2022-10-25T10:07:41.298Z,101039.97
2022-10-25T10:10:11.473Z,101039.97
2022-10-25T10:12:41.151Z,101039.63
2022-10-25T10:15:13.354Z,101039.03
2022-10-25T10:17:40.052Z,101036.22
2022-10-25T10:20:08.527Z,101033.09
2022-10-25T10:22:37.729Z,101029.97
2022-10-25T10:25:05.093Z,101031.34
2022-10-25T10:27:32.875Z,101032.19
2022-10-25T10:30:00.974Z,101035.81
2022-10-25T10:32:30.506Z,101034.69
2022-10-25T10:34:58.223Z,101027.09
2022-10-25T10:37:26.004Z,101025.97
2022-10-25T10:39:55.568Z,101029.56
2022-10-25T10:42:23.645Z,101032.91
2022-10-25T10:45:08.677Z,101034.06
2022-10-25T10:47:35.935Z,101036.03
2022-10-25T10:50:09.800Z,101035.09
2022-10-25T10:52:44.105Z,101028.97
2022-10-25T10:55:34.640Z,101029.47
2022-10-25T10:58:07.536Z,101032.81
2022-10-25T11:00:34.815Z,101036.97
2022-10-25T11:03:01.502Z,101037.81
2022-10-25T11:05:35.375Z,101037.81
2022-10-25T11:08:17.367Z,101039.50
2022-10-25T11:10:44.047Z,101036.38
2022-10-25T11:13:16.217Z,101030.41
2022-10-25T11:15:54.815Z,101029.81
2022-10-25T11:18:28.296Z,101028.44
2022-10-25T11:21:00.397Z,101034.59
2022-10-25T11:23:41.192Z,101035.75
2022-10-25T11:26:14.663Z,101030.66
2022-10-25T11:28:58.570Z,101032.19
2022-10-25T11:31:33.984Z,101020.00
2022-10-25T11:34:19.471Z,101025.00
2022-10-25T11:36:51.842Z,101025.50
2022-10-25T11:39:56.767Z,101018.75
2022-10-25T11:42:38.505Z,101028.00
2022-10-25T11:45:20.507Z,101020.72
2022-10-25T11:48:01.093Z,101024.66
2022-10-25T11:50:34.281Z,101026.88
2022-10-25T11:53:07.000Z,101017.91
2022-10-25T11:55:36.761Z,101023.13
2022-10-25T11:58:19.470Z,101028.94
2022-10-25T12:00:52.040Z,101030.59
2022-10-25T12:03:37.109Z,101025.47
2022-10-25T12:06:17.413Z,101024.16
2022-10-25T12:08:44.044Z,101019.00
2022-10-25T12:11:17.925Z,101012.34
2022-10-25T12:13:47.866Z,101013.38
2022-10-25T12:16:16.209Z,101007.25
2022-10-25T12:18:48.132Z,101008.41
2022-10-25T12:21:24.402Z,101013.72
2022-10-25T12:23:52.638Z,101013.72
2022-10-25T12:26:35.865Z,101014.03
2022-10-25T12:29:03.902Z,101016.66
2022-10-25T12:31:37.113Z,101014.16
2022-10-25T12:34:06.466Z,101001.22
2022-10-25T12:36:38.534Z,100995.41
2022-10-25T12:39:12.344Z,100993.72
2022-10-25T12:41:40.457Z,100993.22
2022-10-25T12:44:10.106Z,101003.66
2022-10-25T12:46:59.919Z,100986.25
2022-10-25T12:49:42.981Z,100988.22
2022-10-25T12:52:28.230Z,100975.09
2022-10-25T12:54:57.897Z,100969.47
2022-10-25T12:57:27.914Z,100965.53
2022-10-25T13:00:02.357Z,100959.72
2022-10-25T13:02:35.210Z,100967.84
2022-10-25T13:05:09.209Z,100965.03
2022-10-25T13:07:36.845Z,100963.84
2022-10-25T13:10:07.289Z,100963.56
2022-10-25T13:12:34.013Z,100968.34
2022-10-25T13:15:02.594Z,100950.63
2022-10-25T13:17:48.423Z,100943.34
2022-10-25T13:20:22.911Z,100945.84
2022-10-25T13:22:49.841Z,100941.34
2022-10-25T13:25:18.445Z,100940.53
2022-10-25T13:28:05.334Z,100942.53
2022-10-25T13:30:32.538Z,100948.16
2022-10-25T13:33:38.746Z,100949.28
2022-10-25T13:36:05.552Z,100949.59
2022-10-25T13:38:38.835Z,100957.19
2022-10-25T13:41:19.466Z,100961.16
2022-10-25T13:43:58.727Z,100955.03
2022-10-25T13:46:33.160Z,100958.97
2022-10-25T13:49:02.201Z,100955.66
2022-10-25T13:51:30.736Z,100955.97
2022-10-25T13:54:01.422Z,100952.63
2022-10-25T13:56:27.997Z,100939.75
2022-10-25T13:58:55.717Z,100947.34
2022-10-25T14:01:23.246Z,100931.63
2022-10-25T14:04:02.119Z,100921.50
2022-10-25T14:06:30.378Z,100914.75
2022-10-25T14:09:08.876Z,100907.47
2022-10-25T14:11:37.881Z,100908.59
2022-10-25T14:14:14.303Z,100909.78
2022-10-25T14:16:44.166Z,100918.22
2022-10-25T14:19:16.149Z,100905.28
2022-10-25T14:21:50.886Z,100918.50
2022-10-25T14:24:17.926Z,100910.91
2022-10-25T14:26:54.847Z,100905.28
2022-10-25T14:29:22.508Z,100902.78
2022-10-25T14:31:49.529Z,100907.56
2022-10-25T14:34:27.095Z,100903.09
2022-10-25T14:36:55.238Z,100897.81
2022-10-25T14:39:23.125Z,100899.78
2022-10-25T14:41:52.738Z,100893.63
2022-10-25T14:44:42.350Z,100891.66
2022-10-25T14:47:26.318Z,100901.22
2022-10-25T14:49:53.064Z,100892.78
2022-10-25T14:52:19.795Z,100885.53
2022-10-25T14:54:48.137Z,100882.19
2022-10-25T14:57:17.663Z,100886.97
2022-10-25T14:59:50.110Z,100886.47
2022-10-25T15:02:16.792Z,100888.44
2022-10-25T15:04:46.006Z,100888.75
2022-10-25T15:07:21.479Z,100891.56
2022-10-25T15:09:48.761Z,100884.28
2022-10-25T15:12:18.213Z,100884.63
2022-10-25T15:14:46.734Z,100883.78
2022-10-25T15:17:16.329Z,100886.59
2022-10-25T15:22:49.690Z,100886.06
2022-10-25T15:25:18.129Z,100874.31
2022-10-25T15:27:47.979Z,100876.78
2022-10-25T15:30:33.125Z,100867.03
2022-10-25T15:32:59.873Z,100867.88
2022-10-25T15:35:27.491Z,100863.69
2022-10-25T15:37:55.657Z,100856.94
2022-10-25T15:40:22.378Z,100864.88
2022-10-25T15:42:49.197Z,100860.38
2022-10-25T15:45:16.041Z,100862.66
2022-10-25T15:47:45.114Z,100862.34
2022-10-25T15:50:16.620Z,100862.66
2022-10-25T15:52:43.616Z,100859.00
2022-10-25T15:55:20.619Z,100869.41
2022-10-25T15:57:47.581Z,100857.38
2022-10-25T16:00:17.859Z,100851.75
2022-10-25T16:02:45.498Z,100864.97
2022-10-25T16:05:20.323Z,100856.53
2022-10-25T16:07:46.938Z,100846.44
2022-10-25T16:10:13.581Z,100850.09
2022-10-25T16:12:40.538Z,100838.84
2022-10-25T16:15:07.663Z,100843.63
2022-10-25T16:17:34.649Z,100848.41
2022-10-25T16:20:01.209Z,100848.72
2022-10-25T16:22:27.889Z,100853.19
2022-10-25T16:24:54.451Z,100842.22
2022-10-25T16:27:21.110Z,100846.81
2022-10-25T16:29:47.765Z,100840.59
2022-10-25T16:32:14.417Z,100835.81
2022-10-25T16:34:42.786Z,100835.81
2022-10-25T16:37:11.835Z,100838.63
2022-10-25T16:39:38.785Z,100836.94
2022-10-25T16:42:05.546Z,100832.16
2022-10-25T16:44:32.305Z,100835.81
2022-10-25T16:47:00.134Z,100842.56
2022-10-25T16:49:26.740Z,100838.94
2022-10-25T16:51:53.446Z,100833.31
2022-10-25T16:54:23.987Z,100831.63
2022-10-25T16:56:51.174Z,100828.00
2022-10-25T16:59:17.836Z,100835.59
2022-10-25T17:01:45.118Z,100835.59
2022-10-25T17:04:17.297Z,100838.72
2022-10-25T17:06:43.876Z,100835.09
2022-10-25T17:09:10.628Z,100828.63
2022-10-25T17:11:37.282Z,100828.94
2022-10-25T17:14:04.315Z,100826.97
2022-10-25T17:16:31.098Z,100826.97
2022-10-25T17:18:58.249Z,100812.09
2022-10-25T17:21:24.844Z,100818.84
2022-10-25T17:23:51.502Z,100805.63
2022-10-25T17:26:18.136Z,100795.56
2022-10-25T17:28:44.956Z,100794.41
2022-10-25T17:31:12.923Z,100788.78
2022-10-25T17:33:40.702Z,100802.50
2022-10-25T17:36:11.976Z,100797.44
2022-10-25T17:38:38.661Z,100803.84
2022-10-25T17:41:05.378Z,100806.06
2022-10-25T17:43:32.154Z,100803.78
2022-10-25T17:46:02.568Z,100799.28
2022-10-25T17:48:29.580Z,100795.88
2022-10-25T17:51:22.304Z,100794.38
2022-10-25T17:53:54.326Z,100791.28
2022-10-25T17:56:22.117Z,100790.97
2022-10-25T17:58:49.665Z,100783.88
2022-10-25T18:01:18.144Z,100784.41
2022-10-25T18:03:45.213Z,100782.91
2022-10-25T18:06:12.838Z,100780.63
2022-10-25T18:08:51.174Z,100774.69
2022-10-25T18:11:28.686Z,100775.19
2022-10-25T18:13:59.418Z,100775.19
2022-10-25T18:16:27.324Z,100772.88
2022-10-25T18:18:55.667Z,100768.09
2022-10-25T18:21:22.416Z,100778.72
2022-10-25T18:23:49.245Z,100775.91
2022-10-25T18:26:18.562Z,100773.59
2022-10-25T18:28:45.352Z,100768.50
2022-10-25T18:31:12.957Z,100762.53
2022-10-25T18:33:41.190Z,100762.22
2022-10-25T18:36:10.097Z,100769.22
2022-10-25T18:38:36.719Z,100779.63
2022-10-25T18:41:07.386Z,100767.53
2022-10-25T18:43:34.325Z,100760.78
2022-10-25T18:46:01.201Z,100760.44
2022-10-25T18:48:28.397Z,100755.66
2022-10-25T18:50:55.050Z,100750.03
2022-10-25T18:53:32.987Z,100750.88
2022-10-25T18:55:59.623Z,100745.75
2022-10-25T18:58:26.177Z,100741.78
2022-10-25T19:00:52.940Z,100740.94
2022-10-25T19:03:21.916Z,100740.31
2022-10-25T19:05:53.039Z,100735.53
2022-10-25T19:08:19.642Z,100742.78
2022-10-25T19:10:47.377Z,100735.06
2022-10-25T19:13:29.785Z,100740.19
2022-10-25T19:15:57.292Z,100732.06
2022-10-25T19:18:24.074Z,100732.06
2022-10-25T19:20:50.803Z,100736.88
2022-10-25T19:23:30.976Z,100734.56
2022-10-25T19:25:57.568Z,100729.44
2022-10-25T19:28:24.329Z,100724.66
2022-10-25T19:30:51.031Z,100726.63
2022-10-25T19:33:24.288Z,100719.34
2022-10-25T19:35:50.845Z,100715.91
2022-10-25T19:38:17.451Z,100711.94
2022-10-25T19:40:44.685Z,100709.13
2022-10-25T19:43:23.706Z,100712.75
2022-10-25T19:45:56.107Z,100710.78
2022-10-25T19:48:34.089Z,100697.56
2022-10-25T19:51:08.805Z,100704.31
2022-10-25T19:53:36.254Z,100700.34
2022-10-25T19:56:08.569Z,100698.38
2022-10-25T19:58:35.686Z,100693.06
2022-10-25T20:01:05.276Z,100677.03
2022-10-25T20:03:32.019Z,100691.09
2022-10-25T20:06:00.052Z,100677.88
2022-10-25T20:08:27.183Z,100679.00
2022-10-25T20:10:54.744Z,100674.22
2022-10-25T20:13:27.115Z,100678.22
2022-10-25T20:15:55.709Z,100666.97
2022-10-25T20:18:23.246Z,100668.09
2022-10-25T20:20:53.092Z,100663.31
2022-10-25T20:23:20.592Z,100654.03
2022-10-25T20:25:47.229Z,100648.75
2022-10-25T20:28:13.816Z,100654.38
2022-10-25T20:30:41.255Z,100646.25
2022-10-25T20:33:08.500Z,100640.63
2022-10-25T20:35:35.906Z,100642.63
2022-10-25T20:38:02.654Z,100639.81
2022-10-25T20:40:29.271Z,100628.88
2022-10-25T20:42:57.839Z,100629.19
2022-10-25T20:45:28.679Z,100628.88
2022-10-25T20:47:56.271Z,100623.56
2022-10-25T20:50:23.676Z,100619.44
2022-10-25T20:53:09.282Z,100607.06
2022-10-25T20:55:36.623Z,100611.84
2022-10-25T20:58:03.227Z,100611.31
2022-10-25T21:00:30.209Z,100618.91
2022-10-25T21:02:56.785Z,100613.28
2022-10-25T21:05:23.383Z,100622.06
2022-10-25T21:07:50.545Z,100616.44
2022-10-25T21:10:17.314Z,100627.69
2022-10-25T21:12:44.004Z,100620.41
2022-10-25T21:15:12.094Z,100618.75
2022-10-25T21:17:39.114Z,100619.56
2022-10-25T21:20:06.062Z,100614.25
2022-10-25T21:22:32.685Z,100624.69
2022-10-25T21:24:59.784Z,100622.22
2022-10-25T21:27:26.390Z,100628.97
2022-10-25T21:29:53.173Z,100630.13
2022-10-25T21:32:20.262Z,100614.41
2022-10-25T21:34:47.189Z,100611.94
2022-10-25T21:37:14.102Z,100616.72
2022-10-25T21:39:40.717Z,100607.78
2022-10-25T21:42:07.308Z,100604.13
2022-10-25T21:44:33.915Z,100600.47
2022-10-25T21:47:00.541Z,100602.50
2022-10-25T21:49:27.177Z,100586.78
2022-10-25T21:51:53.837Z,100588.22
2022-10-25T21:54:22.191Z,100591.38
2022-10-25T21:56:49.049Z,100592.53
2022-10-25T21:59:25.306Z,100585.25
2022-10-25T22:01:52.183Z,100594.81
2022-10-25T22:04:18.930Z,100597.63
2022-10-25T22:06:45.509Z,100584.41
2022-10-25T22:09:12.226Z,100585.25
2022-10-25T22:11:38.983Z,100585.25
2022-10-25T22:14:07.069Z,100580.78
2022-10-25T22:16:34.454Z,100579.13
2022-10-25T22:19:12.992Z,100569.88
2022-10-25T22:21:40.063Z,100559.78
2022-10-25T22:24:08.622Z,100559.78
2022-10-25T22:26:36.325Z,100558.13
2022-10-25T22:29:03.464Z,100551.16
2022-10-25T22:31:30.667Z,100551.16
2022-10-25T22:33:58.852Z,100553.16
2022-10-25T22:36:29.472Z,100548.66
2022-10-25T22:38:57.163Z,100546.19
2022-10-25T22:41:25.217Z,100548.16
2022-10-25T22:43:52.184Z,100545.69
2022-10-25T22:46:25.450Z,100543.72
2022-10-25T22:48:53.343Z,100538.41
2022-10-25T22:51:20.311Z,100532.78
2022-10-25T22:53:47.156Z,100534.75
2022-10-25T22:56:18.123Z,100533.09
2022-10-25T22:58:48.827Z,100540.69
2022-10-25T23:01:16.498Z,100537.88
2022-10-25T23:03:47.359Z,100531.47
2022-10-25T23:06:15.005Z,100533.44
2022-10-25T23:08:42.062Z,100518.88
2022-10-25T23:11:18.957Z,100521.16
2022-10-25T23:13:45.851Z,100517.22
2022-10-25T23:16:13.040Z,100518.03
2022-10-25T23:18:39.792Z,100525.31
2022-10-25T23:21:10.699Z,100518.03
2022-10-25T23:23:40.995Z,100516.91
2022-10-25T23:26:09.696Z,100521.38
2022-10-25T23:28:36.294Z,100521.38
2022-10-25T23:31:06.586Z,100512.94
2022-10-25T23:33:33.620Z,100513.78
2022-10-25T23:36:13.826Z,100509.78
2022-10-25T23:38:40.420Z,100512.09
2022-10-25T23:41:07.072Z,100505.34
2022-10-25T23:43:34.279Z,100516.59
2022-10-25T23:46:00.868Z,100523.03
2022-10-25T23:48:27.611Z,100525.00
2022-10-25T23:53:49.033Z,100524.66
2022-10-25T23:56:15.686Z,100515.09
2022-10-25T23:58:42.439Z,100520.41
